createdAt,value
2023-04-19T00:02:03.067Z,5.80
2023-04-19T00:04:31.301Z,4.90
2023-04-19T00:06:59.529Z,6.43
2023-04-19T00:09:30.054Z,5.27
2023-04-19T00:11:58.209Z,4.93
2023-04-19T00:14:26.347Z,4.73
2023-04-19T00:16:58.665Z,5.03
2023-04-19T00:19:28.544Z,4.53
2023-04-19T00:21:56.588Z,4.73
2023-04-19T00:24:24.682Z,6.17
2023-04-19T00:26:52.699Z,5.37
2023-04-19T00:29:20.748Z,6.27
2023-04-19T00:31:56.486Z,5.80
2023-04-19T00:34:27.253Z,5.63
2023-04-19T00:36:57.726Z,6.10
2023-04-19T00:39:25.764Z,6.17
2023-04-19T00:41:54.458Z,6.60
2023-04-19T00:44:22.618Z,5.20
2023-04-19T00:46:50.909Z,5.27
2023-04-19T00:49:21.925Z,7.23
2023-04-19T00:51:51.434Z,5.93
2023-04-19T00:54:20.027Z,7.80
2023-04-19T00:56:53.880Z,5.70
2023-04-19T00:59:22.371Z,7.13
2023-04-19T01:01:50.715Z,5.73
2023-04-19T01:04:23.155Z,5.33
2023-04-19T01:06:58.930Z,5.57
2023-04-19T01:09:27.094Z,6.37
2023-04-19T01:12:02.344Z,5.97
2023-04-19T01:14:30.470Z,6.30
2023-04-19T01:16:58.692Z,7.20
2023-04-19T01:19:31.473Z,6.60
2023-04-19T01:21:59.642Z,7.03
2023-04-19T01:24:29.106Z,7.23
2023-04-19T01:26:57.277Z,6.53
2023-04-19T01:29:25.401Z,5.63
2023-04-19T01:31:56.033Z,5.80
2023-04-19T01:34:24.213Z,5.90
2023-04-19T01:36:52.578Z,5.43
2023-04-19T01:39:25.724Z,6.40
2023-04-19T01:41:55.313Z,8.40
2023-04-19T01:44:25.641Z,6.90
2023-04-19T01:46:57.206Z,6.70
2023-04-19T01:49:28.130Z,8.10
2023-04-19T01:52:00.928Z,6.40
2023-04-19T01:54:29.056Z,7.23
2023-04-19T01:56:58.516Z,7.33
2023-04-19T01:59:26.946Z,6.70
2023-04-19T02:01:55.100Z,7.10
2023-04-19T02:04:23.197Z,6.60
2023-04-19T02:06:51.599Z,8.00
2023-04-19T02:09:19.700Z,6.93
2023-04-19T02:11:51.052Z,6.97
2023-04-19T02:14:26.301Z,6.87
2023-04-19T02:16:55.219Z,8.03
2023-04-19T02:19:25.315Z,6.93
2023-04-19T02:22:00.379Z,7.27
2023-04-19T02:24:30.587Z,7.83
2023-04-19T02:27:03.263Z,8.43
2023-04-19T02:29:36.986Z,6.83
2023-04-19T02:32:07.798Z,7.57
2023-04-19T02:34:36.013Z,7.17
2023-04-19T02:37:09.518Z,7.93
2023-04-19T02:39:37.632Z,7.53
2023-04-19T02:42:09.068Z,8.07
2023-04-19T02:44:38.551Z,7.90
2023-04-19T02:47:09.470Z,8.80
2023-04-19T02:49:43.297Z,8.47
2023-04-19T02:52:14.603Z,6.40
2023-04-19T02:54:45.910Z,7.93
2023-04-19T02:57:13.962Z,7.60
2023-04-19T02:59:50.090Z,7.57
2023-04-19T03:02:18.314Z,7.80
2023-04-19T03:04:48.663Z,9.17
2023-04-19T03:07:17.052Z,8.33
2023-04-19T03:09:47.568Z,7.60
2023-04-19T03:12:17.974Z,8.53
2023-04-19T03:14:50.541Z,9.97
2023-04-19T03:17:20.696Z,12.23
2023-04-19T03:19:52.481Z,8.47
2023-04-19T03:22:24.426Z,8.23
2023-04-19T03:24:55.448Z,9.87
2023-04-19T03:27:26.911Z,8.70
2023-04-19T03:30:01.626Z,10.73
2023-04-19T03:32:32.250Z,8.97
2023-04-19T03:35:00.894Z,8.23
2023-04-19T03:37:28.946Z,8.27
2023-04-19T03:40:00.154Z,8.30
2023-04-19T03:42:34.106Z,8.47
2023-04-19T03:45:17.180Z,9.27
2023-04-19T03:47:48.488Z,8.63
2023-04-19T03:50:21.856Z,8.30
2023-04-19T03:52:52.915Z,8.53
2023-04-19T03:55:25.269Z,8.90
2023-04-19T03:58:01.639Z,9.60
2023-04-19T04:00:39.216Z,8.30
2023-04-19T04:03:07.991Z,10.07
2023-04-19T04:05:39.173Z,8.90
2023-04-19T04:08:07.344Z,9.37
2023-04-19T04:10:37.253Z,9.67
2023-04-19T04:13:08.908Z,10.00
2023-04-19T04:15:52.446Z,10.10
2023-04-19T04:18:21.566Z,9.83
2023-04-19T04:20:50.469Z,11.43
2023-04-19T04:23:22.152Z,9.60
2023-04-19T04:25:58.016Z,10.47
2023-04-19T04:28:29.441Z,9.63
2023-04-19T04:31:00.300Z,10.70
2023-04-19T04:33:32.201Z,9.40
2023-04-19T04:36:01.916Z,9.60
2023-04-19T04:38:33.762Z,12.50
2023-04-19T04:41:06.067Z,9.73
2023-04-19T04:43:34.853Z,9.20
2023-04-19T04:46:04.607Z,9.97
2023-04-19T04:48:38.067Z,10.47
2023-04-19T04:51:10.236Z,10.07
2023-04-19T04:53:42.853Z,11.73
2023-04-19T04:56:11.510Z,9.27
2023-04-19T04:58:42.679Z,10.17
2023-04-19T05:01:19.442Z,8.87
2023-04-19T05:03:48.668Z,9.47
2023-04-19T05:06:22.745Z,10.30
2023-04-19T05:08:54.655Z,9.07
2023-04-19T05:11:37.148Z,10.70
2023-04-19T05:14:06.026Z,10.63
2023-04-19T05:16:38.977Z,10.03
2023-04-19T05:19:07.340Z,10.40
2023-04-19T05:21:43.703Z,10.17
2023-04-19T05:24:15.293Z,10.87
2023-04-19T05:26:43.779Z,9.27
2023-04-19T05:29:12.918Z,9.43
2023-04-19T05:31:53.476Z,9.73
2023-04-19T05:34:31.478Z,10.67
2023-04-19T05:37:00.584Z,9.40
2023-04-19T05:39:31.136Z,10.83
2023-04-19T05:42:00.225Z,9.43
2023-04-19T05:44:28.252Z,11.63
2023-04-19T05:46:58.895Z,10.37
2023-04-19T05:49:59.630Z,8.70
2023-04-19T05:52:32.548Z,9.73
2023-04-19T05:55:01.963Z,10.90
2023-04-19T05:57:35.493Z,9.80
2023-04-19T06:00:04.076Z,13.17
2023-04-19T06:02:51.618Z,10.27
2023-04-19T06:05:22.769Z,9.70
2023-04-19T06:10:36.817Z,10.63
2023-04-19T06:13:18.919Z,10.53
2023-04-19T06:15:49.998Z,10.77
2023-04-19T06:18:22.066Z,13.33
2023-04-19T06:20:55.461Z,13.97
2023-04-19T06:23:28.555Z,10.90
2023-04-19T06:26:06.296Z,11.13
2023-04-19T06:28:38.922Z,11.27
2023-04-19T06:31:09.589Z,11.30
2023-04-19T06:33:38.920Z,11.57
2023-04-19T06:36:10.666Z,11.20
2023-04-19T06:38:41.702Z,11.27
2023-04-19T06:41:14.306Z,10.43
2023-04-19T06:43:44.997Z,10.17
2023-04-19T06:46:16.838Z,10.93
2023-04-19T06:48:47.552Z,10.53
2023-04-19T06:51:15.748Z,10.87
2023-04-19T06:53:44.745Z,11.00
2023-04-19T06:56:18.433Z,11.67
2023-04-19T06:58:46.521Z,9.40
2023-04-19T07:01:19.812Z,11.10
2023-04-19T07:03:49.498Z,9.50
2023-04-19T07:06:20.791Z,11.00
2023-04-19T07:08:50.314Z,8.97
2023-04-19T07:11:20.318Z,9.63
2023-04-19T07:13:49.182Z,9.47
2023-04-19T07:16:19.956Z,10.47
2023-04-19T07:18:49.354Z,9.20
2023-04-19T07:21:17.435Z,9.17
2023-04-19T07:23:45.407Z,9.47
2023-04-19T07:26:17.485Z,10.77
2023-04-19T07:28:48.401Z,10.23
2023-04-19T07:31:19.705Z,10.97
2023-04-19T07:33:59.262Z,9.43
2023-04-19T07:36:35.612Z,8.83
2023-04-19T07:39:05.874Z,9.30
2023-04-19T07:41:34.935Z,10.27
2023-04-19T07:44:07.155Z,8.70
2023-04-19T07:46:49.620Z,9.03
2023-04-19T07:49:21.441Z,9.60
2023-04-19T07:51:49.751Z,9.63
2023-04-19T07:54:20.215Z,8.47
2023-04-19T07:56:51.203Z,9.67
2023-04-19T07:59:19.246Z,11.20
2023-04-19T08:01:50.259Z,8.47
2023-04-19T08:04:20.461Z,9.97
2023-04-19T08:06:51.626Z,8.77
2023-04-19T08:09:19.678Z,9.33
2023-04-19T08:11:53.955Z,10.53
2023-04-19T08:14:34.839Z,9.10
2023-04-19T08:17:24.620Z,9.50
2023-04-19T08:19:54.182Z,10.07
2023-04-19T08:22:26.695Z,10.17
2023-04-19T08:24:56.943Z,9.37
2023-04-19T08:27:29.972Z,8.90
2023-04-19T08:30:00.764Z,8.93
2023-04-19T08:32:32.051Z,8.37
2023-04-19T08:35:01.040Z,8.43
2023-04-19T08:37:33.090Z,10.27
2023-04-19T08:40:04.390Z,9.73
2023-04-19T08:42:36.883Z,9.60
2023-04-19T08:45:27.073Z,9.57
2023-04-19T08:48:03.208Z,9.13
2023-04-19T08:50:45.268Z,11.60
2023-04-19T08:53:25.703Z,8.17
2023-04-19T08:56:12.882Z,7.60
2023-04-19T09:01:32.982Z,5.67
2023-04-19T09:06:41.158Z,6.27
2023-04-19T09:12:07.051Z,6.23
2023-04-19T09:14:35.443Z,7.00
2023-04-19T09:17:17.859Z,8.23
2023-04-19T09:19:52.494Z,6.47
2023-04-19T09:22:30.253Z,6.17
2023-04-19T09:27:40.700Z,7.07
2023-04-19T09:30:24.191Z,6.70
2023-04-19T09:33:08.492Z,8.23
2023-04-19T09:35:46.017Z,6.80
2023-04-19T09:38:27.823Z,6.27
2023-04-19T09:41:07.619Z,6.23
2023-04-19T09:46:35.247Z,6.67
2023-04-19T09:49:45.610Z,6.87
2023-04-19T09:52:35.924Z,6.60
2023-04-19T09:55:25.452Z,4.73
2023-04-19T09:57:57.303Z,3.80
2023-04-19T10:00:38.988Z,3.80
2023-04-19T10:03:17.695Z,4.43
2023-04-19T10:05:46.470Z,6.17
2023-04-19T10:08:24.760Z,4.97
2023-04-19T10:10:59.334Z,3.90
2023-04-19T10:13:35.080Z,4.80
2023-04-19T10:16:15.692Z,4.00
2023-04-19T10:18:50.831Z,5.43
2023-04-19T10:21:25.158Z,5.80
2023-04-19T10:23:56.022Z,4.17
2023-04-19T10:26:26.931Z,4.20
2023-04-19T10:29:00.897Z,4.50
2023-04-19T10:31:33.046Z,4.90
2023-04-19T10:34:07.113Z,5.60
2023-04-19T10:36:35.103Z,5.97
2023-04-19T10:39:07.252Z,5.20
2023-04-19T10:42:05.735Z,5.77
2023-04-19T10:44:38.208Z,6.37
2023-04-19T10:47:12.584Z,4.70
2023-04-19T10:49:46.459Z,6.03
2023-04-19T10:52:29.473Z,4.33
2023-04-19T10:55:00.200Z,6.07
2023-04-19T10:58:04.723Z,5.53
2023-04-19T11:00:41.507Z,5.50
2023-04-19T11:03:55.925Z,4.77
2023-04-19T11:06:30.106Z,6.47
2023-04-19T11:09:03.059Z,4.87
2023-04-19T11:11:39.245Z,4.40
2023-04-19T11:14:13.576Z,4.33
2023-04-19T11:16:46.568Z,4.87
2023-04-19T11:19:18.160Z,4.30
2023-04-19T11:21:50.644Z,4.17
2023-04-19T11:24:20.717Z,5.60
2023-04-19T11:26:53.273Z,4.13
2023-04-19T11:29:26.849Z,3.80
2023-04-19T11:31:59.251Z,6.07
2023-04-19T11:34:33.063Z,6.27
2023-04-19T11:37:01.718Z,8.27
2023-04-19T11:39:49.442Z,4.57
2023-04-19T11:42:23.329Z,3.90
2023-04-19T11:44:53.872Z,4.00
2023-04-19T11:47:28.321Z,3.63
2023-04-19T11:50:03.832Z,3.93
2023-04-19T11:52:31.782Z,3.83
2023-04-19T11:55:22.180Z,4.80
2023-04-19T11:57:50.278Z,4.07
2023-04-19T12:00:28.481Z,4.70
2023-04-19T12:03:17.745Z,4.10
2023-04-19T12:05:56.656Z,4.47
2023-04-19T12:08:35.258Z,3.63
2023-04-19T12:11:07.118Z,4.37
2023-04-19T12:13:38.958Z,5.03
2023-04-19T12:16:07.396Z,4.53
2023-04-19T12:18:48.249Z,3.40
2023-04-19T12:21:28.683Z,4.37
2023-04-19T12:24:00.298Z,3.13
2023-04-19T12:26:29.322Z,3.40
2023-04-19T12:29:00.824Z,3.67
2023-04-19T12:31:30.179Z,3.13
2023-04-19T12:33:59.594Z,3.83
2023-04-19T12:36:30.372Z,3.73
2023-04-19T12:38:58.710Z,4.13
2023-04-19T12:41:27.936Z,3.23
2023-04-19T12:43:57.981Z,2.93
2023-04-19T12:46:26.038Z,2.93
2023-04-19T12:48:54.025Z,2.83
2023-04-19T12:51:23.814Z,5.07
2023-04-19T12:53:57.265Z,2.97
2023-04-19T12:56:33.275Z,3.90
2023-04-19T12:59:01.258Z,2.13
2023-04-19T13:01:29.267Z,2.20
2023-04-19T13:03:59.287Z,2.93
2023-04-19T13:06:29.193Z,3.47
2023-04-19T13:09:01.674Z,5.30
2023-04-19T13:11:29.833Z,2.37
2023-04-19T13:13:57.961Z,1.77
2023-04-19T13:16:28.660Z,3.83
2023-04-19T13:18:59.234Z,6.73
2023-04-19T13:21:34.411Z,4.03
2023-04-19T13:24:10.399Z,2.17
2023-04-19T13:26:44.062Z,3.40
2023-04-19T13:29:12.098Z,3.93
2023-04-19T13:31:42.061Z,4.13
2023-04-19T13:34:16.331Z,2.80
2023-04-19T13:36:50.842Z,3.10
2023-04-19T13:39:21.666Z,5.80
2023-04-19T13:41:55.411Z,1.70
2023-04-19T13:44:26.291Z,1.80
2023-04-19T13:46:54.293Z,3.17
2023-04-19T13:49:25.841Z,2.20
2023-04-19T13:51:57.004Z,5.37
2023-04-19T13:54:24.945Z,5.40
2023-04-19T13:56:52.881Z,1.70
2023-04-19T13:59:21.170Z,2.70
2023-04-19T14:01:49.267Z,2.20
2023-04-19T14:04:22.686Z,2.40
2023-04-19T14:07:01.608Z,2.97
2023-04-19T14:09:33.730Z,5.43
2023-04-19T14:12:04.498Z,1.93
2023-04-19T14:14:37.902Z,2.73
2023-04-19T14:17:14.411Z,1.93
2023-04-19T14:19:44.755Z,2.13
2023-04-19T14:22:12.927Z,3.40
2023-04-19T14:24:48.117Z,6.00
2023-04-19T14:27:19.317Z,3.23
2023-04-19T14:29:49.581Z,3.07
2023-04-19T14:32:29.792Z,2.07
2023-04-19T14:34:57.920Z,3.07
2023-04-19T14:37:29.375Z,2.83
2023-04-19T14:40:00.597Z,4.87
2023-04-19T14:42:28.718Z,3.43
2023-04-19T14:45:05.074Z,2.83
2023-04-19T14:47:40.413Z,2.83
2023-04-19T14:50:13.630Z,2.53
2023-04-19T14:52:42.641Z,2.40
2023-04-19T14:55:17.279Z,3.67
2023-04-19T14:57:55.558Z,3.57
2023-04-19T15:00:24.139Z,2.73
2023-04-19T15:02:55.296Z,2.27
2023-04-19T15:05:29.185Z,3.13
2023-04-19T15:08:00.188Z,2.03
2023-04-19T15:10:30.264Z,2.90
2023-04-19T15:13:03.578Z,2.20
2023-04-19T15:15:34.849Z,3.93
2023-04-19T15:18:05.503Z,3.73
2023-04-19T15:20:36.484Z,2.40
2023-04-19T15:23:06.710Z,3.07
2023-04-19T15:25:37.755Z,3.93
2023-04-19T15:28:15.780Z,2.97
2023-04-19T15:30:51.676Z,3.20
2023-04-19T15:33:29.763Z,3.93
2023-04-19T15:36:00.832Z,2.53
2023-04-19T15:38:31.913Z,3.83
2023-04-19T15:41:05.495Z,3.17
2023-04-19T15:43:35.549Z,2.90
2023-04-19T15:46:03.641Z,4.37
2023-04-19T15:48:31.768Z,5.07
2023-04-19T15:51:02.713Z,4.10
2023-04-19T15:53:30.902Z,5.37
2023-04-19T15:55:58.958Z,3.93
2023-04-19T15:58:34.565Z,2.90
2023-04-19T16:01:02.765Z,4.07
2023-04-19T16:03:33.417Z,3.03
2023-04-19T16:06:01.613Z,2.90
2023-04-19T16:08:29.642Z,4.03
2023-04-19T16:11:00.888Z,3.57
2023-04-19T16:13:32.756Z,4.07
2023-04-19T16:16:04.354Z,2.60
2023-04-19T16:18:33.541Z,4.93
2023-04-19T16:21:10.588Z,3.00
2023-04-19T16:23:38.773Z,2.17
2023-04-19T16:26:07.699Z,3.03
2023-04-19T16:28:39.959Z,6.23
2023-04-19T16:31:12.060Z,3.53
2023-04-19T16:33:42.042Z,4.80
2023-04-19T16:36:12.343Z,4.40
2023-04-19T16:38:40.485Z,4.53
2023-04-19T16:41:11.805Z,4.67
2023-04-19T16:43:41.461Z,3.30
2023-04-19T16:46:09.721Z,5.83
2023-04-19T16:48:38.613Z,5.63
2023-04-19T16:51:07.028Z,5.20
2023-04-19T16:53:38.320Z,2.83
2023-04-19T16:56:10.763Z,4.00
2023-04-19T16:58:46.251Z,5.43
2023-04-19T17:01:15.060Z,2.60
2023-04-19T17:03:43.412Z,2.90
2023-04-19T17:06:17.027Z,3.87
2023-04-19T17:08:45.151Z,3.13
2023-04-19T17:11:17.949Z,2.93
2023-04-19T17:13:48.522Z,3.03
2023-04-19T17:16:22.914Z,5.30
2023-04-19T17:19:01.152Z,3.53
2023-04-19T17:21:29.350Z,4.90
2023-04-19T17:23:57.539Z,9.43
2023-04-19T17:26:25.996Z,3.20
2023-04-19T17:28:55.417Z,2.70
2023-04-19T17:31:23.698Z,3.80
2023-04-19T17:33:51.916Z,4.23
2023-04-19T17:36:20.888Z,2.73
2023-04-19T17:38:49.194Z,4.50
2023-04-19T17:41:22.842Z,3.47
2023-04-19T17:43:57.562Z,2.60
2023-04-19T17:46:25.702Z,5.17
2023-04-19T17:48:59.838Z,4.33
2023-04-19T17:51:28.043Z,2.73
2023-04-19T17:53:59.125Z,7.43
2023-04-19T17:56:29.808Z,2.83
2023-04-19T17:59:00.773Z,2.90
2023-04-19T18:01:33.459Z,2.87
2023-04-19T18:04:06.965Z,2.90
2023-04-19T18:06:40.374Z,5.43
2023-04-19T18:09:08.713Z,5.77
2023-04-19T18:11:39.857Z,5.20
2023-04-19T18:14:10.852Z,6.57
2023-04-19T18:16:42.049Z,4.17
2023-04-19T18:19:13.172Z,6.50
2023-04-19T18:21:49.388Z,2.50
2023-04-19T18:24:19.034Z,5.80
2023-04-19T18:26:50.498Z,4.00
2023-04-19T18:29:20.898Z,2.47
2023-04-19T18:31:49.142Z,2.63
2023-04-19T18:34:19.504Z,3.07
2023-04-19T18:36:50.618Z,4.23
2023-04-19T18:39:22.656Z,3.30
2023-04-19T18:41:54.989Z,4.00
2023-04-19T18:47:05.720Z,3.13
2023-04-19T18:49:40.658Z,3.60
2023-04-19T18:52:11.898Z,2.93
2023-04-19T18:54:40.424Z,4.73
2023-04-19T18:59:45.843Z,3.70
2023-04-19T19:02:16.778Z,6.10
2023-04-19T19:04:56.028Z,4.53
2023-04-19T19:07:36.872Z,2.70
2023-04-19T19:10:19.271Z,2.60
2023-04-19T19:12:52.814Z,3.23
2023-04-19T19:15:26.002Z,3.33
2023-04-19T19:17:57.028Z,6.63
2023-04-19T19:20:28.773Z,5.10
2023-04-19T19:22:57.054Z,3.20
2023-04-19T19:25:28.278Z,6.50
2023-04-19T19:28:09.792Z,4.30
2023-04-19T19:30:48.085Z,2.80
2023-04-19T19:33:21.847Z,4.33
2023-04-19T19:35:53.111Z,4.03
2023-04-19T19:38:26.108Z,3.83
2023-04-19T19:41:41.656Z,2.80
2023-04-19T19:43:46.262Z,2.83
2023-04-19T19:46:18.763Z,4.73
2023-04-19T19:51:42.267Z,5.37
2023-04-19T19:54:08.037Z,3.17
2023-04-19T19:57:00.561Z,3.17
2023-04-19T19:59:36.391Z,5.40
2023-04-19T20:02:09.692Z,6.73
2023-04-19T20:04:38.779Z,3.97
2023-04-19T20:07:32.799Z,3.57
2023-04-19T20:09:55.786Z,3.97
2023-04-19T20:12:26.964Z,3.93
2023-04-19T20:14:55.249Z,2.67
2023-04-19T20:17:32.309Z,3.00
2023-04-19T20:20:02.663Z,2.97
2023-04-19T20:22:34.402Z,3.63
2023-04-19T20:25:05.530Z,5.17
2023-04-19T20:27:38.301Z,5.40
2023-04-19T20:30:11.465Z,3.67
2023-04-19T20:32:48.495Z,3.90
2023-04-19T20:35:19.529Z,3.30
2023-04-19T20:38:05.231Z,4.30
2023-04-19T20:40:36.384Z,4.93
2023-04-19T20:43:06.682Z,3.50
2023-04-19T20:45:34.961Z,3.43
2023-04-19T20:48:08.620Z,6.87
2023-04-19T20:50:37.340Z,2.93
2023-04-19T20:53:11.571Z,4.03
2023-04-19T20:55:43.593Z,5.20
2023-04-19T20:58:23.591Z,3.93
2023-04-19T21:00:51.694Z,3.60
2023-04-19T21:03:30.677Z,3.17
2023-04-19T21:05:58.921Z,3.10
2023-04-19T21:08:29.332Z,3.03
2023-04-19T21:10:57.513Z,4.33
2023-04-19T21:13:27.605Z,3.63
2023-04-19T21:15:55.851Z,8.47
2023-04-19T21:18:28.638Z,3.40
2023-04-19T21:20:58.693Z,2.90
2023-04-19T21:23:34.027Z,4.90
2023-04-19T21:26:04.264Z,2.97
2023-04-19T21:28:34.894Z,3.93
2023-04-19T21:31:03.349Z,3.23
2023-04-19T21:33:31.570Z,5.70
2023-04-19T21:36:00.991Z,4.13
2023-04-19T21:38:29.252Z,3.67
2023-04-19T21:41:00.437Z,6.23
2023-04-19T21:43:29.451Z,7.27
2023-04-19T21:45:57.720Z,7.93
2023-04-19T21:48:26.005Z,5.43
2023-04-19T21:50:54.305Z,8.77
2023-04-19T21:53:23.775Z,5.10
2023-04-19T21:55:53.887Z,4.20
2023-04-19T21:58:24.660Z,5.20
2023-04-19T22:00:53.635Z,3.67
2023-04-19T22:03:21.978Z,3.53
2023-04-19T22:05:50.168Z,3.53
2023-04-19T22:08:18.457Z,5.77
2023-04-19T22:10:50.306Z,5.47
2023-04-19T22:13:18.882Z,3.97
2023-04-19T22:15:46.943Z,4.60
2023-04-19T22:18:15.036Z,8.00
2023-04-19T22:20:43.267Z,5.33
2023-04-19T22:23:11.343Z,4.57
2023-04-19T22:25:39.444Z,4.80
2023-04-19T22:28:09.013Z,3.60
2023-04-19T22:30:37.103Z,4.30
2023-04-19T22:33:05.265Z,4.03
2023-04-19T22:35:33.585Z,4.20
2023-04-19T22:38:02.599Z,3.30
2023-04-19T22:40:30.692Z,4.87
2023-04-19T22:42:58.832Z,5.33
2023-04-19T22:45:28.387Z,5.90
2023-04-19T22:47:57.712Z,5.23
2023-04-19T22:50:28.793Z,4.47
2023-04-19T22:52:57.125Z,4.83
2023-04-19T22:55:25.362Z,5.90
2023-04-19T22:57:53.469Z,5.67
2023-04-19T23:00:22.376Z,5.40
2023-04-19T23:02:51.897Z,3.67
2023-04-19T23:05:21.322Z,4.47
2023-04-19T23:07:52.379Z,3.67
2023-04-19T23:10:23.634Z,4.30
2023-04-19T23:12:57.830Z,4.97
2023-04-19T23:15:26.223Z,5.67
2023-04-19T23:18:01.350Z,5.60
2023-04-19T23:20:30.376Z,4.40
2023-04-19T23:22:58.566Z,5.73
2023-04-19T23:25:26.826Z,4.37
2023-04-19T23:27:55.011Z,4.63
2023-04-19T23:30:23.259Z,6.40
2023-04-19T23:32:51.419Z,4.67
2023-04-19T23:35:20.882Z,5.67
2023-04-19T23:37:48.918Z,4.33
2023-04-19T23:40:17.050Z,6.83
2023-04-19T23:42:45.361Z,6.03
2023-04-19T23:45:13.542Z,4.67
2023-04-19T23:47:41.701Z,4.97
2023-04-19T23:50:13.133Z,6.87
2023-04-19T23:52:43.333Z,6.07
2023-04-19T23:55:11.664Z,4.27
2023-04-19T23:57:42.950Z,5.50
